WetterOnline ( http://www.wetteronline.de )

Wetter aktuell Nittenau

Aktuelles Wetter: Regensburg/Oberhub (371m)

6-stündlich | Neueste Meldungen
Ortszeit Temperatur Wetter
Mo, 10.12. 1:00 5.0° C Regen
So, 09.12. 19:00 5.3° C Sprühregen
So, 09.12. 13:00 6.9° C Regen
So, 09.12. 7:00 7.0° C leichter Regen
So, 09.12. 1:00 6.9° C bewölkt
Sa, 08.12. 19:00 6.1° C bedeckt
Sa, 08.12. 13:00 7.6° C bewölkt
Sa, 08.12. 7:00 5.0° C bewölkt
Ortszeit Temperatur Wetter
Mo, 10.12. 4:30 3.4° C fast wolkenlos
Mo, 10.12. 4:20 3.4° C fast wolkenlos
Mo, 10.12. 4:10 3.4° C wolkenlos
Mo, 10.12. 4:00 3.5° C fast wolkenlos
Mo, 10.12. 3:50 3.5° C fast wolkenlos
Mo, 10.12. 3:40 3.6° C leicht bewölkt
Mo, 10.12. 3:30 3.9° C bewölkt
Mo, 10.12. 3:00 3.6° C fast wolkenlos
Mo, 10.12. 2:30 3.1° C leicht bewölkt
Mo, 10.12. 2:00 4.6° C Regen
Mo, 10.12. 1:30 5.3° C bewölkt
Ortszeit Relative Feuchte Sichtweite
Mo, 10.12. 1:00 90% 65 km
So, 09.12. 19:00 94% 9 km
So, 09.12. 13:00 83% >70 km
So, 09.12. 7:00 81% 40 km
So, 09.12. 1:00 78% >70 km
Sa, 08.12. 19:00 83% >70 km
Sa, 08.12. 13:00 64% >70 km
Sa, 08.12. 7:00 79% 65 km
Ortszeit Relative Feuchte Sichtweite
Mo, 10.12. 4:30 82% 50 km
Mo, 10.12. 4:20 82% -
Mo, 10.12. 4:10 84% -
Mo, 10.12. 4:00 82% 50 km
Mo, 10.12. 3:50 82% -
Mo, 10.12. 3:40 82% -
Mo, 10.12. 3:30 84% 55 km
Mo, 10.12. 3:00 86% 65 km
Mo, 10.12. 2:30 89% >70 km
Mo, 10.12. 2:00 88% 5.0 km
Mo, 10.12. 1:30 84% >70 km
Ortszeit Niederschlagsmenge Niederschlagsart
Mo, 10.12. 1:00 0.3 l/m2 in 6 Std. Regen
So, 09.12. 19:00 5 l/m2 in 12 Std. Regen
So, 09.12. 13:00 1 l/m2 in 6 Std. Regen
So, 09.12. 7:00 2 l/m2 in 12 Std. Regen
So, 09.12. 1:00 0.3 l/m2 in 6 Std. Regen
Sa, 08.12. 19:00 0.9 l/m2 in 12 Std. Regen
Sa, 08.12. 13:00 0.1 l/m2 in 6 Std. Regen
Sa, 08.12. 7:00 2 l/m2 in 12 Std. Regen
Ortszeit Niederschlagsmenge Niederschlagsart
Mo, 10.12. 4:30 0.0 l/m2 in 1 Std. -
Mo, 10.12. 4:20 keine Meldung -
Mo, 10.12. 4:10 keine Meldung -
Mo, 10.12. 4:00 0.0 l/m2 in 1 Std. Regen
Mo, 10.12. 3:50 keine Meldung -
Mo, 10.12. 3:40 keine Meldung -
Mo, 10.12. 3:30 0.0 l/m2 in 1 Std. -
Mo, 10.12. 3:00 0.2 l/m2 in 1 Std. Regen
Mo, 10.12. 2:30 0.2 l/m2 in 1 Std. Schneeregen
Mo, 10.12. 2:00 0.4 l/m2 in 1 Std. Regen
Mo, 10.12. 1:30 0.1 l/m2 in 1 Std. -
Ortszeit Stärke Spitze Richtung
km/h Bft. km/h Grad Sektor
Mo, 10.12. 1:00 18 3 47 280° W
So, 09.12. 19:00 22 4 47 250° W
So, 09.12. 13:00 20 4 57 260° W
So, 09.12. 7:00 37 5 56 250° W
So, 09.12. 1:00 25 4 54 230° SW
Sa, 08.12. 19:00 19 3 57 230° SW
Sa, 08.12. 13:00 25 4 50 240° SW
Sa, 08.12. 7:00 18 3 58 220° SW
Ortszeit Stärke Spitze Richtung
km/h Bft. km/h Grad Sektor
Mo, 10.12. 4:30 24 4 41 270° W
Mo, 10.12. 4:20 24 4 - 270° W
Mo, 10.12. 4:10 22 4 - 270° W
Mo, 10.12. 4:00 22 4 43 280° W
Mo, 10.12. 3:50 22 4 - 280° W
Mo, 10.12. 3:40 25 4 - 280° W
Mo, 10.12. 3:30 18 3 43 280° W
Mo, 10.12. 3:00 20 4 41 290° W
Mo, 10.12. 2:30 13 3 35 300° NW
Mo, 10.12. 2:00 18 3 43 300° NW
Mo, 10.12. 1:30 22 4 43 280° W
Ortszeit Untergrenze Bedeckung Gattung
total tief tief mittel hoch
Mo, 10.12. 1:00 540 m 7/8 7/8 - - -
So, 09.12. 19:00 570 m 4/8 4/8 - - -
So, 09.12. 13:00 630 m 7/8 7/8 - - -
So, 09.12. 7:00 780 m 7/8 7/8 - - -
So, 09.12. 1:00 720 m 7/8 7/8 - - -
Sa, 08.12. 19:00 630 m 8/8 8/8 - - -
Sa, 08.12. 13:00 1110 m 7/8 7/8 - - -
Sa, 08.12. 7:00 1110 m 7/8 8/8 - - -
Ortszeit Bedeckungsgrad in Achtel und Wolkenuntergrenze
Mo, 10.12. 4:30 1(1800m)
Mo, 10.12. 4:20 1(1800m)
Mo, 10.12. 4:10 keine Wolken
Mo, 10.12. 4:00 1(1290m)
Mo, 10.12. 3:50 1(1290m)
Mo, 10.12. 3:40 1(690m) 2(840m) 3(1200m)
Mo, 10.12. 3:30 5(660m) 7(840m) 7(1140m)
Mo, 10.12. 3:00 3(660m) 3(780m) 4(5400m)
Mo, 10.12. 2:30 1(840m) 3(1800m)
Mo, 10.12. 2:00 1(420m) 7(1050m) 7(1800m)
Mo, 10.12. 1:30 1(630m) 7(990m)
Ortszeit Luftdruck NN (hPa) Tendenz (hPa in 3 Std.)
Mo, 10.12. 1:00 1012 + 2,3
So, 09.12. 19:00 1006 + 2,0
So, 09.12. 13:00 1004 + 0,9
So, 09.12. 7:00 1000 - 0,1
So, 09.12. 1:00 1004 - 4,1
Sa, 08.12. 19:00 1011 - 1,0
Sa, 08.12. 13:00 1011 - 2,1
Sa, 08.12. 7:00 1014 + 1,7
Ortszeit Luftdruck NN (hPa) Tendenz (hPa in 3 Std.)
Mo, 10.12. 4:30 1015 + 2,9
Mo, 10.12. 4:20 1015 keine Meldung
Mo, 10.12. 4:10 1016 keine Meldung
Mo, 10.12. 4:00 1015 + 3,1
Mo, 10.12. 3:50 1015 keine Meldung
Mo, 10.12. 3:40 1015 keine Meldung
Mo, 10.12. 3:30 1015 + 3,0
Mo, 10.12. 3:00 1015 + 3,0
Mo, 10.12. 2:30 1014 + 2,9
Mo, 10.12. 2:00 1013 + 2,7
Mo, 10.12. 1:30 1012 + 2,2
Ortszeit Schneehöhe (cm)
Mo, 10.12. 1:00 0
So, 09.12. 19:00 0
So, 09.12. 13:00 0
So, 09.12. 7:00 0
So, 09.12. 1:00 0
Sa, 08.12. 19:00 0
Sa, 08.12. 13:00 0
Sa, 08.12. 7:00 0
Ortszeit Schneehöhe (cm)
Mo, 10.12. 4:30 0
Mo, 10.12. 4:20 0
Mo, 10.12. 4:10 0
Mo, 10.12. 4:00 0
Mo, 10.12. 3:50 0
Mo, 10.12. 3:40 0
Mo, 10.12. 3:30 0
Mo, 10.12. 3:00 0
Mo, 10.12. 2:30 0
Mo, 10.12. 2:00 0
Mo, 10.12. 1:30 0
Link zu dieser Seite / Seite empfehlen

Das Wetter in ...